createdAt,value
2018-12-18T00:00:15.615Z,99.99
2018-12-18T00:01:15.660Z,99.99
2018-12-18T00:02:15.694Z,99.99
2018-12-18T00:03:15.759Z,99.99
2018-12-18T00:04:15.790Z,99.99
2018-12-18T00:05:15.817Z,99.99
2018-12-18T00:06:15.854Z,99.99
2018-12-18T00:07:15.904Z,99.99
2018-12-18T00:08:15.938Z,99.99
2018-12-18T00:09:15.996Z,99.99
2018-12-18T00:10:16.019Z,99.99
2018-12-18T00:11:16.065Z,99.99
2018-12-18T00:12:16.099Z,99.99
2018-12-18T00:13:16.143Z,99.99
2018-12-18T00:14:16.219Z,99.99
2018-12-18T00:15:16.220Z,99.99
2018-12-18T00:16:16.264Z,99.99
2018-12-18T00:17:16.310Z,99.99
2018-12-18T00:18:16.375Z,99.99
2018-12-18T00:19:16.402Z,99.99
2018-12-18T00:20:16.442Z,99.99
2018-12-18T00:21:16.485Z,99.99
2018-12-18T00:22:16.510Z,99.99
2018-12-18T00:23:16.547Z,99.99
2018-12-18T00:24:16.588Z,99.99
2018-12-18T00:25:16.765Z,99.99
2018-12-18T00:26:16.674Z,99.99
2018-12-18T00:27:16.713Z,99.99
2018-12-18T00:28:16.752Z,99.99
2018-12-18T00:29:16.793Z,99.99
2018-12-18T00:30:16.855Z,99.99
2018-12-18T00:31:16.883Z,99.99
2018-12-18T00:32:16.924Z,99.99
2018-12-18T00:33:16.958Z,99.99
2018-12-18T00:34:17.000Z,99.99
2018-12-18T00:35:17.058Z,99.99
2018-12-18T00:36:17.087Z,99.99
2018-12-18T00:37:17.124Z,99.99
2018-12-18T00:38:17.170Z,99.99
2018-12-18T00:39:17.202Z,99.99
2018-12-18T00:40:17.263Z,99.99
2018-12-18T00:41:17.287Z,99.99
2018-12-18T00:42:17.354Z,99.99
2018-12-18T00:43:17.379Z,99.99
2018-12-18T00:44:17.408Z,99.99
2018-12-18T00:45:17.477Z,99.99
2018-12-18T00:46:17.509Z,99.99
2018-12-18T00:47:17.554Z,99.99
2018-12-18T00:48:17.570Z,99.99
2018-12-18T00:49:17.608Z,99.99
2018-12-18T00:50:17.663Z,99.99
2018-12-18T00:51:17.720Z,99.99
2018-12-18T00:52:17.736Z,99.99
2018-12-18T00:53:17.774Z,99.99
2018-12-18T00:54:17.816Z,99.99
2018-12-18T00:55:17.876Z,99.99
2018-12-18T00:56:17.932Z,99.99
2018-12-18T00:57:17.940Z,99.99
2018-12-18T00:58:17.987Z,99.99
2018-12-18T00:59:18.021Z,99.99
2018-12-18T01:00:18.071Z,99.99
2018-12-18T01:01:18.124Z,99.99
2018-12-18T01:02:18.140Z,99.99
2018-12-18T01:03:18.184Z,99.99
2018-12-18T01:04:18.226Z,99.99
2018-12-18T01:05:18.266Z,99.99
2018-12-18T01:06:18.402Z,99.99
2018-12-18T01:07:18.363Z,99.99
2018-12-18T01:08:18.385Z,99.99
2018-12-18T01:09:18.427Z,99.99
2018-12-18T01:10:18.470Z,99.99
2018-12-18T01:11:18.507Z,99.99
2018-12-18T01:12:18.570Z,99.99
2018-12-18T01:13:18.621Z,99.99
2018-12-18T01:14:18.634Z,99.99
2018-12-18T01:15:18.671Z,99.99
2018-12-18T01:16:18.709Z,99.99
2018-12-18T01:17:18.750Z,99.99
2018-12-18T01:18:18.812Z,99.99
2018-12-18T01:19:18.830Z,99.99
2018-12-18T01:20:18.877Z,99.99
2018-12-18T01:21:18.910Z,99.99
2018-12-18T01:22:18.952Z,99.99
2018-12-18T01:23:19.015Z,99.99
2018-12-18T01:24:19.047Z,99.99
2018-12-18T01:25:19.071Z,99.99
2018-12-18T01:26:19.115Z,99.99
2018-12-18T01:27:19.152Z,99.99
2018-12-18T01:28:19.260Z,99.99
2018-12-18T01:29:19.231Z,99.99
2018-12-18T01:30:19.275Z,99.99
2018-12-18T01:31:19.351Z,99.99
2018-12-18T01:32:19.351Z,99.99
2018-12-18T01:33:19.411Z,99.99
2018-12-18T01:34:19.437Z,99.99
2018-12-18T01:35:19.474Z,99.99
2018-12-18T01:36:19.511Z,99.99
2018-12-18T01:37:19.556Z,99.99
2018-12-18T01:38:19.659Z,99.99
2018-12-18T01:39:19.635Z,99.99
2018-12-18T01:40:19.683Z,99.99
2018-12-18T01:41:19.719Z,99.99
2018-12-18T01:42:19.755Z,99.99
2018-12-18T01:43:19.830Z,99.99
2018-12-18T01:44:19.871Z,99.99
2018-12-18T01:45:19.910Z,99.99
2018-12-18T01:46:19.912Z,99.99
2018-12-18T01:47:19.949Z,99.99
2018-12-18T01:48:20.021Z,99.99
2018-12-18T01:49:20.029Z,99.99
2018-12-18T01:50:20.076Z,99.99
2018-12-18T01:51:20.107Z,99.99
2018-12-18T01:52:20.149Z,99.99
2018-12-18T01:53:20.227Z,99.99
2018-12-18T01:54:20.245Z,99.99
2018-12-18T01:55:20.267Z,99.99
2018-12-18T01:56:20.310Z,99.99
2018-12-18T01:57:20.352Z,99.99
2018-12-18T01:58:20.392Z,99.99
2018-12-18T01:59:20.450Z,99.99
2018-12-18T02:00:20.465Z,99.99
2018-12-18T02:01:20.507Z,99.99
2018-12-18T02:02:20.545Z,99.99
2018-12-18T02:03:20.603Z,99.99
2018-12-18T02:04:20.653Z,99.99
2018-12-18T02:05:20.684Z,99.99
2018-12-18T02:06:20.719Z,99.99
2018-12-18T02:07:20.740Z,99.99
2018-12-18T02:08:20.783Z,99.99
2018-12-18T02:09:20.839Z,99.99
2018-12-18T02:10:20.916Z,99.99
2018-12-18T02:11:20.901Z,99.99
2018-12-18T02:12:20.939Z,99.99
2018-12-18T02:13:20.990Z,99.99
2018-12-18T02:14:21.044Z,99.99
2018-12-18T02:15:21.060Z,99.99
2018-12-18T02:16:21.096Z,99.99
2018-12-18T02:17:21.136Z,99.99
2018-12-18T02:18:21.176Z,99.99
2018-12-18T02:19:21.232Z,99.99
2018-12-18T02:20:21.266Z,99.99
2018-12-18T02:21:21.317Z,99.99
2018-12-18T02:22:21.333Z,99.99
2018-12-18T02:23:21.374Z,99.99
2018-12-18T02:24:21.414Z,99.99
2018-12-18T02:25:21.468Z,99.99
2018-12-18T02:26:21.491Z,99.99
2018-12-18T02:27:21.537Z,99.99
2018-12-18T02:28:21.607Z,99.99
2018-12-18T02:29:21.605Z,99.99
2018-12-18T02:30:21.664Z,99.99
2018-12-18T02:31:21.685Z,99.99
2018-12-18T02:32:21.741Z,99.99
2018-12-18T02:33:21.775Z,99.99
2018-12-18T02:34:21.804Z,99.99
2018-12-18T02:35:21.889Z,99.99
2018-12-18T02:36:21.884Z,99.99
2018-12-18T02:37:21.939Z,99.99
2018-12-18T02:38:21.961Z,99.99
2018-12-18T02:39:22.002Z,99.99
2018-12-18T02:40:22.091Z,99.99
2018-12-18T02:41:22.086Z,99.99
2018-12-18T02:42:22.117Z,99.99
2018-12-18T02:43:22.156Z,99.99
2018-12-18T02:44:22.194Z,99.99
2018-12-18T02:45:22.255Z,99.99
2018-12-18T02:46:22.291Z,99.99
2018-12-18T02:47:22.315Z,99.99
2018-12-18T02:48:22.355Z,99.99
2018-12-18T02:49:22.397Z,99.99
2018-12-18T02:50:22.434Z,99.99
2018-12-18T02:51:22.538Z,99.99
2018-12-18T02:52:22.514Z,99.99
2018-12-18T02:53:22.580Z,99.99
2018-12-18T02:54:22.590Z,99.99
2018-12-18T02:55:22.627Z,99.99
2018-12-18T02:56:22.690Z,99.99
2018-12-18T02:57:22.705Z,99.99
2018-12-18T02:58:22.746Z,99.99
2018-12-18T02:59:22.786Z,99.99
2018-12-18T03:00:22.823Z,99.99
2018-12-18T03:01:22.899Z,99.99
2018-12-18T03:02:22.906Z,99.99
2018-12-18T03:03:22.946Z,99.99
2018-12-18T03:04:22.981Z,99.99
2018-12-18T03:05:23.033Z,99.99
2018-12-18T03:06:23.087Z,99.99
2018-12-18T03:07:23.122Z,99.99
2018-12-18T03:08:23.138Z,99.99
2018-12-18T03:09:23.177Z,99.99
2018-12-18T03:10:23.223Z,99.99
2018-12-18T03:11:23.255Z,99.99
2018-12-18T03:12:23.317Z,99.99
2018-12-18T03:13:23.335Z,99.99
2018-12-18T03:14:23.380Z,99.99
2018-12-18T03:15:23.413Z,99.99
2018-12-18T03:16:23.474Z,99.99
2018-12-18T03:17:23.511Z,99.99
2018-12-18T03:18:23.550Z,99.99
2018-12-18T03:19:23.577Z,99.99
2018-12-18T03:20:23.605Z,99.99
2018-12-18T03:21:23.649Z,99.99
2018-12-18T03:22:23.707Z,99.99
2018-12-18T03:23:23.725Z,99.99
2018-12-18T03:24:23.776Z,99.99
2018-12-18T03:25:23.806Z,99.99
2018-12-18T03:26:23.848Z,99.99
2018-12-18T03:27:23.905Z,99.99
2018-12-18T03:28:23.926Z,99.99
2018-12-18T03:29:23.961Z,99.99
2018-12-18T03:30:24.023Z,99.99
2018-12-18T03:31:24.039Z,99.99
2018-12-18T03:32:24.101Z,99.99
2018-12-18T03:33:24.138Z,99.99
2018-12-18T03:34:28.248Z,99.99
2018-12-18T03:35:24.200Z,99.99
2018-12-18T03:36:24.233Z,99.99
2018-12-18T03:37:24.278Z,99.99
2018-12-18T03:38:24.333Z,99.99
2018-12-18T03:39:24.370Z,99.99
2018-12-18T03:40:24.388Z,99.99
2018-12-18T03:41:24.533Z,99.99
2018-12-18T03:42:24.467Z,99.99
2018-12-18T03:43:24.529Z,99.99
2018-12-18T03:44:24.551Z,99.99
2018-12-18T03:45:24.584Z,99.99
2018-12-18T03:46:24.643Z,99.99
2018-12-18T03:47:24.671Z,99.99
2018-12-18T03:48:24.845Z,99.99
2018-12-18T03:49:24.743Z,99.99
2018-12-18T03:50:24.783Z,99.99
2018-12-18T03:51:24.824Z,99.99
2018-12-18T03:52:24.869Z,99.99
2018-12-18T03:53:24.925Z,99.99
2018-12-18T03:54:24.938Z,99.99
2018-12-18T03:55:24.980Z,99.99
2018-12-18T03:56:25.017Z,99.99
2018-12-18T03:57:25.054Z,99.99
2018-12-18T03:58:25.133Z,99.99
2018-12-18T03:59:25.136Z,99.99
2018-12-18T04:00:25.176Z,99.99
2018-12-18T04:01:25.215Z,99.99
2018-12-18T04:02:25.256Z,99.99
2018-12-18T04:03:25.312Z,99.99
2018-12-18T04:04:25.363Z,99.99
2018-12-18T04:05:25.381Z,99.99
2018-12-18T04:06:25.473Z,99.99
2018-12-18T04:07:25.454Z,99.99
2018-12-18T04:08:25.487Z,99.99
2018-12-18T04:09:25.558Z,99.99
2018-12-18T04:10:25.569Z,99.99
2018-12-18T04:11:25.607Z,99.99
2018-12-18T04:12:25.645Z,99.99
2018-12-18T04:13:25.728Z,99.99
2018-12-18T04:14:25.775Z,99.99
2018-12-18T04:15:25.765Z,99.99
2018-12-18T04:16:25.811Z,99.99
2018-12-18T04:17:25.842Z,99.99
2018-12-18T04:18:25.882Z,99.99
2018-12-18T04:19:25.948Z,99.99
2018-12-18T04:20:25.958Z,99.99
2018-12-18T04:21:26.000Z,99.99
2018-12-18T04:22:26.038Z,99.99
2018-12-18T04:23:26.077Z,99.99
2018-12-18T04:24:26.148Z,99.99
2018-12-18T04:25:26.158Z,99.99
2018-12-18T04:26:26.198Z,99.99
2018-12-18T04:27:26.233Z,99.99
2018-12-18T04:28:26.995Z,99.99
2018-12-18T04:29:26.338Z,99.99
2018-12-18T04:30:26.363Z,99.99
2018-12-18T04:31:26.393Z,99.99
2018-12-18T04:32:26.440Z,99.99
2018-12-18T04:33:26.467Z,99.99
2018-12-18T04:34:26.543Z,99.99
2018-12-18T04:35:26.548Z,99.99
2018-12-18T04:36:26.595Z,99.99
2018-12-18T04:37:26.629Z,99.99
2018-12-18T04:38:26.806Z,99.99
2018-12-18T04:39:26.723Z,99.99
2018-12-18T04:40:26.760Z,99.99
2018-12-18T04:41:26.785Z,99.99
2018-12-18T04:42:26.824Z,99.99
2018-12-18T04:43:26.875Z,99.99
2018-12-18T04:44:26.903Z,99.99
2018-12-18T04:45:26.959Z,99.99
2018-12-18T04:46:26.998Z,99.99
2018-12-18T04:47:27.027Z,99.99
2018-12-18T04:48:27.062Z,99.99
2018-12-18T04:49:27.096Z,99.99
2018-12-18T04:50:27.156Z,99.99
2018-12-18T04:51:27.173Z,99.99
2018-12-18T04:52:27.216Z,99.99
2018-12-18T04:53:27.259Z,99.99
2018-12-18T04:54:27.301Z,99.99
2018-12-18T04:55:27.355Z,99.99
2018-12-18T04:56:27.433Z,99.99
2018-12-18T04:57:27.412Z,99.99
2018-12-18T04:58:27.455Z,99.99
2018-12-18T04:59:27.488Z,99.99
2018-12-18T05:00:27.550Z,99.99
2018-12-18T05:01:27.570Z,99.99
2018-12-18T05:02:27.604Z,99.99
2018-12-18T05:03:27.691Z,99.99
2018-12-18T05:04:27.685Z,99.99
2018-12-18T05:05:27.749Z,99.99
2018-12-18T05:06:27.763Z,99.99
2018-12-18T05:07:27.808Z,99.99
2018-12-18T05:08:27.846Z,99.99
2018-12-18T05:09:27.887Z,99.99
2018-12-18T05:10:27.940Z,99.99
2018-12-18T05:11:27.956Z,99.99
2018-12-18T05:12:27.994Z,99.99
2018-12-18T05:13:28.031Z,99.99
2018-12-18T05:14:28.071Z,99.99
2018-12-18T05:15:28.135Z,99.99
2018-12-18T05:16:28.175Z,99.99
2018-12-18T05:17:28.189Z,99.99
2018-12-18T05:18:28.228Z,99.99
2018-12-18T05:19:28.266Z,99.99
2018-12-18T05:20:28.306Z,99.99
2018-12-18T05:21:28.413Z,99.99
2018-12-18T05:22:28.391Z,99.99
2018-12-18T05:23:28.420Z,99.99
2018-12-18T05:24:28.457Z,99.99
2018-12-18T05:25:28.508Z,99.99
2018-12-18T05:26:28.585Z,99.99
2018-12-18T05:27:28.574Z,99.99
2018-12-18T05:28:28.697Z,99.99
2018-12-18T05:29:28.661Z,99.99
2018-12-18T05:30:28.692Z,99.99
2018-12-18T05:31:28.761Z,99.99
2018-12-18T05:32:28.772Z,99.99
2018-12-18T05:33:28.820Z,99.99
2018-12-18T05:34:28.846Z,99.99
2018-12-18T05:35:28.885Z,99.99
2018-12-18T05:36:28.959Z,99.99
2018-12-18T05:37:28.964Z,99.99
2018-12-18T05:38:29.004Z,99.99
2018-12-18T05:39:29.042Z,99.99
2018-12-18T05:40:29.080Z,99.99
2018-12-18T05:41:29.136Z,99.99
2018-12-18T05:42:29.171Z,99.99
2018-12-18T05:43:29.194Z,99.99
2018-12-18T05:44:29.249Z,99.99
2018-12-18T05:45:29.273Z,99.99
2018-12-18T05:46:29.356Z,99.99
2018-12-18T05:47:29.366Z,99.99
2018-12-18T05:48:29.386Z,99.99
2018-12-18T05:49:30.822Z,99.99
2018-12-18T05:50:29.474Z,99.99
2018-12-18T05:51:29.501Z,99.99
2018-12-18T05:52:29.561Z,99.99
2018-12-18T05:53:29.637Z,99.99
2018-12-18T05:54:29.618Z,99.99
2018-12-18T05:55:29.659Z,99.99
2018-12-18T05:56:29.694Z,99.99
2018-12-18T05:57:29.748Z,99.99
2018-12-18T05:58:29.786Z,99.99
2018-12-18T05:59:29.811Z,99.99
2018-12-18T06:00:29.851Z,99.99
2018-12-18T06:01:29.894Z,99.99
2018-12-18T06:02:29.946Z,99.99
2018-12-18T06:03:29.963Z,99.99
2018-12-18T06:04:30.004Z,99.99
2018-12-18T06:05:30.054Z,99.99
2018-12-18T06:06:30.084Z,99.99
2018-12-18T06:07:30.144Z,99.99
2018-12-18T06:08:30.181Z,99.99
2018-12-18T06:09:30.243Z,99.99
2018-12-18T06:10:30.238Z,99.99
2018-12-18T06:11:30.314Z,99.99
2018-12-18T06:12:30.348Z,99.99
2018-12-18T06:13:30.351Z,99.99
2018-12-18T06:14:30.396Z,99.99
2018-12-18T06:15:30.424Z,99.99
2018-12-18T06:16:30.481Z,99.99
2018-12-18T06:17:30.526Z,99.99
2018-12-18T06:18:30.553Z,99.99
2018-12-18T06:19:30.583Z,99.99
2018-12-18T06:20:30.617Z,99.99
2018-12-18T06:21:30.662Z,99.99
2018-12-18T06:22:30.716Z,99.99
2018-12-18T06:23:30.740Z,99.99
2018-12-18T06:24:30.795Z,99.99
2018-12-18T06:25:30.814Z,99.99
2018-12-18T06:26:30.851Z,99.99
2018-12-18T06:27:30.930Z,99.99
2018-12-18T06:28:30.961Z,99.99
2018-12-18T06:29:30.982Z,99.99
2018-12-18T06:30:31.010Z,99.99
2018-12-18T06:31:31.038Z,99.99
2018-12-18T06:32:31.078Z,99.99
2018-12-18T06:33:31.990Z,99.99
2018-12-18T06:34:31.327Z,99.99
2018-12-18T06:35:31.193Z,99.99
2018-12-18T06:36:31.255Z,99.99
2018-12-18T06:37:31.282Z,99.99
2018-12-18T06:38:31.310Z,99.99
2018-12-18T06:39:31.372Z,99.99
2018-12-18T06:40:31.386Z,99.99
2018-12-18T06:41:31.425Z,99.99
2018-12-18T06:42:31.465Z,99.99
2018-12-18T06:43:31.502Z,99.99
2018-12-18T06:44:31.575Z,99.99
2018-12-18T06:45:31.586Z,99.99
2018-12-18T06:46:31.623Z,99.99
2018-12-18T06:47:31.659Z,99.99
2018-12-18T06:48:31.700Z,99.99
2018-12-18T06:49:31.750Z,99.99
2018-12-18T06:50:31.769Z,99.99
2018-12-18T06:51:31.811Z,99.99
2018-12-18T06:52:31.847Z,99.99
2018-12-18T06:53:31.886Z,99.99
2018-12-18T06:54:31.948Z,99.99
2018-12-18T06:55:31.973Z,99.99
2018-12-18T06:56:32.029Z,99.99
2018-12-18T06:57:32.039Z,99.99
2018-12-18T06:58:32.083Z,99.99
2018-12-18T06:59:32.986Z,99.99
2018-12-18T07:00:32.182Z,99.99
2018-12-18T07:01:32.193Z,99.99
2018-12-18T07:02:32.228Z,99.99
2018-12-18T07:03:32.266Z,99.99
2018-12-18T07:04:32.324Z,99.99
2018-12-18T07:05:32.344Z,99.99
2018-12-18T07:06:32.380Z,99.99
2018-12-18T07:07:32.428Z,99.99
2018-12-18T07:08:32.457Z,99.99
2018-12-18T07:09:32.535Z,99.99
2018-12-18T07:10:32.536Z,99.99
2018-12-18T07:11:32.572Z,99.99
2018-12-18T07:12:32.623Z,99.99
2018-12-18T07:13:32.649Z,99.99
2018-12-18T07:14:33.394Z,99.99
2018-12-18T07:15:32.748Z,99.99
2018-12-18T07:16:33.599Z,99.99
2018-12-18T07:17:32.814Z,99.99
2018-12-18T07:18:32.849Z,99.99
2018-12-18T07:19:32.893Z,99.99
2018-12-18T07:20:32.944Z,99.99
2018-12-18T07:21:32.960Z,99.99
2018-12-18T07:22:33.000Z,99.99
2018-12-18T07:23:33.040Z,99.99
2018-12-18T07:24:33.202Z,99.99
2018-12-18T07:25:33.140Z,99.99
2018-12-18T07:26:33.167Z,99.99
2018-12-18T07:27:33.184Z,99.99
2018-12-18T07:28:33.250Z,99.99
2018-12-18T07:29:33.265Z,99.99
2018-12-18T07:30:33.309Z,99.99
2018-12-18T07:31:33.358Z,99.99
2018-12-18T07:32:33.377Z,99.99
2018-12-18T07:33:33.416Z,99.99
2018-12-18T07:34:33.538Z,99.99
2018-12-18T07:35:33.494Z,99.99
2018-12-18T07:36:33.561Z,99.99
2018-12-18T07:37:33.571Z,99.99
2018-12-18T07:38:33.610Z,99.99
2018-12-18T07:39:33.668Z,99.99
2018-12-18T07:40:33.687Z,99.99
2018-12-18T07:41:33.748Z,99.99
2018-12-18T07:42:33.777Z,99.99
2018-12-18T07:43:33.805Z,99.99
2018-12-18T07:44:33.845Z,99.99
2018-12-18T07:45:33.877Z,99.99
2018-12-18T07:46:33.914Z,99.99
2018-12-18T07:47:33.983Z,99.99
2018-12-18T07:48:34.001Z,99.99
2018-12-18T07:49:34.032Z,99.99
2018-12-18T07:50:34.064Z,99.99
2018-12-18T07:51:34.124Z,99.99
2018-12-18T07:52:34.141Z,99.99
2018-12-18T07:53:35.363Z,99.99
2018-12-18T07:54:34.222Z,99.99
2018-12-18T07:55:34.257Z,99.99
2018-12-18T07:56:34.315Z,99.99
2018-12-18T07:57:34.336Z,99.99
2018-12-18T07:58:34.392Z,99.99
2018-12-18T07:59:34.429Z,99.99
2018-12-18T08:00:34.464Z,99.99
2018-12-18T08:01:34.492Z,99.99
2018-12-18T08:02:34.565Z,99.99
2018-12-18T08:03:34.593Z,99.99
2018-12-18T08:04:34.613Z,99.99
2018-12-18T08:05:34.681Z,99.99
2018-12-18T08:06:34.701Z,99.99
2018-12-18T08:07:34.788Z,99.99
2018-12-18T08:08:34.814Z,99.99
2018-12-18T08:09:34.819Z,99.99
2018-12-18T08:10:34.868Z,99.99
2018-12-18T08:11:34.903Z,99.99
2018-12-18T08:12:34.943Z,99.99
2018-12-18T08:13:35.008Z,99.99
2018-12-18T08:14:35.135Z,99.99
2018-12-18T08:15:35.071Z,99.99
2018-12-18T08:16:35.116Z,99.99
2018-12-18T08:17:35.167Z,99.99
2018-12-18T08:18:35.225Z,99.99
2018-12-18T08:19:35.242Z,99.73
2018-12-18T08:20:35.294Z,99.63
2018-12-18T08:21:35.331Z,99.16
2018-12-18T08:22:35.379Z,99.26
2018-12-18T08:23:35.456Z,98.97
2018-12-18T08:24:35.467Z,99.44
2018-12-18T08:25:35.508Z,99.54
2018-12-18T08:26:35.553Z,98.45
2018-12-18T08:27:35.618Z,97.64
2018-12-18T08:28:35.671Z,97.92
2018-12-18T08:29:35.687Z,97.26
2018-12-18T08:30:35.736Z,97.07
2018-12-18T08:31:35.764Z,96.78
2018-12-18T08:32:35.811Z,97.45
2018-12-18T08:33:35.900Z,98.02
2018-12-18T08:34:35.899Z,96.78
2018-12-18T08:35:36.530Z,96.97
2018-12-18T08:36:35.990Z,97.45
2018-12-18T08:37:36.030Z,98.02
2018-12-18T08:38:36.110Z,98.49
2018-12-18T08:39:36.133Z,97.78
2018-12-18T08:40:36.161Z,98.63
2018-12-18T08:41:36.203Z,98.68
2018-12-18T08:42:36.980Z,98.78
2018-12-18T08:43:36.320Z,99.58
2018-12-18T08:44:36.416Z,99.16
2018-12-18T08:45:36.381Z,99.68
2018-12-18T08:46:36.433Z,99.91
2018-12-18T08:47:36.470Z,99.39
2018-12-18T08:48:36.514Z,99.35
2018-12-18T08:49:36.581Z,98.40
2018-12-18T08:50:36.609Z,99.63
2018-12-18T08:51:36.652Z,98.78
2018-12-18T08:52:36.689Z,98.49
2018-12-18T08:53:36.730Z,99.35
2018-12-18T08:54:36.795Z,99.97
2018-12-18T08:55:36.828Z,97.45
2018-12-18T08:56:36.868Z,98.64
2018-12-18T08:57:36.910Z,97.02
2018-12-18T08:58:36.952Z,97.12
2018-12-18T08:59:37.027Z,95.84
2018-12-18T09:00:37.067Z,96.93
2018-12-18T09:01:37.083Z,97.50
2018-12-18T09:02:37.137Z,96.55
2018-12-18T09:03:37.173Z,95.89
2018-12-18T09:04:37.247Z,96.74
2018-12-18T09:05:42.986Z,95.89
2018-12-18T09:06:37.308Z,94.65
2018-12-18T09:07:37.355Z,94.27
2018-12-18T09:08:37.393Z,92.56
2018-12-18T09:09:37.819Z,91.71
2018-12-18T09:10:39.903Z,92.23
2018-12-18T09:11:37.532Z,92.28
2018-12-18T09:12:37.573Z,91.71
2018-12-18T09:13:37.617Z,91.56
2018-12-18T09:14:37.660Z,92.61
2018-12-18T09:15:37.736Z,92.61
2018-12-18T09:16:37.777Z,91.85
2018-12-18T09:17:37.802Z,92.51
2018-12-18T09:18:37.850Z,91.66
2018-12-18T09:19:37.890Z,91.94
2018-12-18T09:20:37.975Z,89.43
2018-12-18T09:21:37.980Z,91.94
2018-12-18T09:22:38.034Z,91.33
2018-12-18T09:23:38.077Z,92.32
2018-12-18T09:24:38.118Z,92.32
2018-12-18T09:25:38.185Z,90.90
2018-12-18T09:26:38.210Z,89.00
2018-12-18T09:27:38.268Z,88.67
2018-12-18T09:28:38.303Z,90.61
2018-12-18T09:29:38.353Z,89.38
2018-12-18T09:30:42.400Z,87.86
2018-12-18T09:31:38.443Z,88.34
2018-12-18T09:32:38.491Z,88.05
2018-12-18T09:33:38.543Z,87.38
2018-12-18T09:34:38.586Z,87.57
2018-12-18T09:35:38.654Z,88.24
2018-12-18T09:36:38.687Z,87.76
2018-12-18T09:37:38.762Z,87.10
2018-12-18T09:38:38.797Z,88.05
2018-12-18T09:39:38.837Z,86.72
2018-12-18T09:40:38.888Z,89.28
2018-12-18T09:41:38.947Z,88.15
2018-12-18T09:42:38.985Z,87.95
2018-12-18T09:43:39.019Z,87.76
2018-12-18T09:44:39.098Z,87.01
2018-12-18T09:45:39.112Z,87.29
2018-12-18T09:46:39.155Z,88.34
2018-12-18T09:47:39.228Z,88.20
2018-12-18T09:48:39.263Z,88.05
2018-12-18T09:49:39.308Z,87.19
2018-12-18T09:50:39.356Z,86.58
2018-12-18T09:51:39.395Z,87.05
2018-12-18T09:52:39.481Z,89.90
2018-12-18T09:53:39.506Z,88.95
2018-12-18T09:54:39.540Z,89.05
2018-12-18T09:55:39.589Z,88.43
2018-12-18T09:56:39.643Z,89.00
2018-12-18T09:57:39.707Z,86.63
2018-12-18T09:58:39.732Z,85.35
2018-12-18T09:59:39.779Z,86.20
2018-12-18T10:00:39.831Z,87.05
2018-12-18T10:01:39.887Z,87.43
2018-12-18T10:02:39.977Z,88.29
2018-12-18T10:03:39.975Z,88.34
2018-12-18T10:04:40.027Z,87.53
2018-12-18T10:05:40.067Z,88.20
2018-12-18T10:06:40.125Z,88.48
2018-12-18T10:07:40.254Z,89.43
2018-12-18T10:08:40.212Z,90.76
2018-12-18T10:09:40.265Z,92.37
2018-12-18T10:10:40.308Z,95.03
2018-12-18T10:11:40.357Z,96.93
2018-12-18T10:12:40.422Z,96.83
2018-12-18T10:13:40.497Z,96.08
2018-12-18T10:14:40.506Z,96.93
2018-12-18T10:15:40.545Z,97.78
2018-12-18T10:16:40.593Z,98.97
2018-12-18T10:17:40.672Z,95.98
2018-12-18T10:18:40.693Z,95.41
2018-12-18T10:19:40.744Z,95.03
2018-12-18T10:20:40.787Z,95.89
2018-12-18T10:21:40.858Z,94.79
2018-12-18T10:22:40.899Z,96.59
2018-12-18T10:23:40.958Z,97.45
2018-12-18T10:24:40.979Z,97.69
2018-12-18T10:25:41.036Z,99.21
2018-12-18T10:26:41.071Z,99.58
2018-12-18T10:27:41.116Z,99.87
2018-12-18T10:28:41.183Z,99.99
2018-12-18T10:29:41.212Z,99.99
2018-12-18T10:30:41.260Z,99.99
2018-12-18T10:31:41.302Z,99.99
2018-12-18T10:32:41.367Z,99.99
2018-12-18T10:33:41.422Z,99.99
2018-12-18T10:34:41.444Z,99.99
2018-12-18T10:35:41.503Z,99.99
2018-12-18T10:36:41.536Z,99.99
2018-12-18T10:37:41.584Z,99.99
2018-12-18T10:38:41.646Z,99.99
2018-12-18T10:39:41.692Z,99.99
2018-12-18T10:40:41.723Z,99.99
2018-12-18T10:41:41.767Z,99.99
2018-12-18T10:42:41.805Z,99.99
2018-12-18T10:43:41.852Z,99.99
2018-12-18T10:44:41.923Z,99.99
2018-12-18T10:45:41.949Z,99.99
2018-12-18T10:46:41.993Z,99.99
2018-12-18T10:47:42.033Z,99.99
2018-12-18T10:48:42.076Z,99.99
2018-12-18T10:49:42.140Z,99.99
2018-12-18T10:50:42.161Z,99.99
2018-12-18T10:51:42.236Z,99.99
2018-12-18T10:52:42.256Z,99.99
2018-12-18T10:53:42.295Z,99.99
2018-12-18T10:54:42.381Z,99.99
2018-12-18T10:55:42.407Z,99.99
2018-12-18T10:56:42.551Z,99.99
2018-12-18T10:57:42.475Z,99.99
2018-12-18T10:58:42.520Z,99.99
2018-12-18T10:59:42.583Z,99.99
2018-12-18T11:00:42.629Z,99.99
2018-12-18T11:01:42.654Z,99.99
2018-12-18T11:02:42.697Z,99.99
2018-12-18T11:03:43.495Z,99.99
2018-12-18T11:04:42.810Z,99.99
2018-12-18T11:05:42.907Z,99.99
2018-12-18T11:06:42.877Z,99.99
2018-12-18T11:07:42.912Z,99.99
2018-12-18T11:08:42.959Z,99.99
2018-12-18T11:09:43.036Z,99.99
2018-12-18T11:10:43.063Z,99.99
2018-12-18T11:11:43.092Z,99.99
2018-12-18T11:12:43.263Z,99.99
2018-12-18T11:13:43.182Z,99.99
2018-12-18T11:14:43.229Z,99.99
2018-12-18T11:15:43.292Z,99.99
2018-12-18T11:16:43.308Z,99.99
2018-12-18T11:17:43.350Z,99.99
2018-12-18T11:18:43.401Z,99.99
2018-12-18T11:19:43.438Z,99.99
2018-12-18T11:20:43.506Z,99.99
2018-12-18T11:21:43.524Z,99.99
2018-12-18T11:22:43.565Z,99.99
2018-12-18T11:23:43.615Z,99.99
2018-12-18T11:24:43.653Z,99.99
2018-12-18T11:25:43.715Z,99.99
2018-12-18T11:26:43.741Z,99.99
2018-12-18T11:27:43.791Z,99.99
2018-12-18T11:28:43.861Z,99.99
2018-12-18T11:29:43.886Z,99.99
2018-12-18T11:30:43.933Z,99.99
2018-12-18T11:31:43.971Z,99.99
2018-12-18T11:32:43.996Z,99.99
2018-12-18T11:33:44.043Z,99.99
2018-12-18T11:34:44.100Z,99.99
2018-12-18T11:35:44.254Z,99.99
2018-12-18T11:36:44.175Z,99.99
2018-12-18T11:37:44.227Z,99.99
2018-12-18T11:38:44.253Z,99.99
2018-12-18T11:39:44.310Z,99.99
2018-12-18T11:40:44.363Z,99.99
2018-12-18T11:41:44.386Z,99.99
2018-12-18T11:42:44.431Z,99.99
2018-12-18T11:43:44.463Z,99.99
2018-12-18T11:44:45.503Z,99.99
2018-12-18T11:45:44.574Z,99.99
2018-12-18T11:46:44.832Z,99.99
2018-12-18T11:47:44.704Z,99.99
2018-12-18T11:48:44.677Z,99.99
2018-12-18T11:49:44.718Z,99.99
2018-12-18T11:50:44.767Z,99.99
2018-12-18T11:51:44.819Z,99.99
2018-12-18T11:52:44.844Z,99.99
2018-12-18T11:53:44.888Z,99.99
2018-12-18T11:54:44.929Z,99.99
2018-12-18T11:55:44.972Z,99.99
2018-12-18T11:56:45.033Z,99.99
2018-12-18T11:57:45.054Z,99.99
2018-12-18T11:58:45.101Z,99.99
2018-12-18T11:59:45.141Z,99.99
2018-12-18T12:00:45.270Z,99.99
2018-12-18T12:01:45.243Z,99.99
2018-12-18T12:02:45.296Z,99.99
2018-12-18T12:03:45.319Z,99.54
2018-12-18T12:04:45.354Z,99.35
2018-12-18T12:05:45.397Z,98.11
2018-12-18T12:06:45.451Z,96.03
2018-12-18T12:07:46.502Z,94.51
2018-12-18T12:08:45.519Z,94.51
2018-12-18T12:09:45.572Z,94.89
2018-12-18T12:10:45.609Z,96.45
2018-12-18T12:11:45.648Z,95.70
2018-12-18T12:12:45.712Z,94.84
2018-12-18T12:13:45.742Z,93.41
2018-12-18T12:14:45.776Z,92.56
2018-12-18T12:15:45.826Z,94.27
2018-12-18T12:16:45.859Z,94.84
2018-12-18T12:17:45.937Z,95.03
2018-12-18T12:18:45.946Z,91.89
2018-12-18T12:19:45.986Z,91.80
2018-12-18T12:20:46.039Z,90.28
2018-12-18T12:21:46.077Z,90.57
2018-12-18T12:22:46.144Z,89.62
2018-12-18T12:23:46.183Z,90.09
2018-12-18T12:24:46.199Z,89.62
2018-12-18T12:25:46.258Z,90.09
2018-12-18T12:26:46.284Z,88.86
2018-12-18T12:27:47.308Z,90.47
2018-12-18T12:28:46.400Z,90.19
2018-12-18T12:29:46.412Z,88.95
2018-12-18T12:30:46.460Z,87.91
2018-12-18T12:31:46.496Z,89.14
2018-12-18T12:32:46.611Z,88.29
2018-12-18T12:33:46.583Z,87.62
2018-12-18T12:34:46.626Z,86.87
2018-12-18T12:35:46.674Z,86.77
2018-12-18T12:36:46.713Z,86.20
2018-12-18T12:37:46.784Z,87.43
2018-12-18T12:38:46.834Z,87.62
2018-12-18T12:39:46.899Z,86.87
2018-12-18T12:40:46.877Z,85.91
2018-12-18T12:41:46.932Z,85.44
2018-12-18T12:42:46.970Z,84.30
2018-12-18T12:43:47.033Z,84.82
2018-12-18T12:44:47.060Z,85.25
2018-12-18T12:45:47.099Z,84.25
2018-12-18T12:46:47.250Z,85.20
2018-12-18T12:47:47.177Z,84.44
2018-12-18T12:48:47.249Z,84.72
2018-12-18T12:49:47.269Z,84.53
2018-12-18T12:50:47.315Z,84.25
2018-12-18T12:51:47.370Z,83.59
2018-12-18T12:52:47.395Z,84.11